Time;durP1;ratioP1;P1;durP2;ratioP2;P2;SDS_P1;SDS_P2;PMS_P1;PMS_P2;Temp;Humidity;BMP_temperature;BMP_pressure;BME280_temperature;BME280_humidity;BME280_pressure;Samples;Min_cycle;Max_cycle;Signal;HPM_P1;HPM_P2
2023/04/09 00:01:11;;;;;;;;;;;8.40;99.90;;;;;;5027584;28;20400;-73
2023/04/09 00:03:37;;;;;;;;;;;8.20;99.90;;;;;;5032472;28;20071;-73
2023/04/09 00:06:03;;;;;;;;;;;8.20;99.90;;;;;;5031483;28;19932;-74
2023/04/09 00:08:29;;;;;;;;;;;8.20;99.90;;;;;;5032522;28;20372;-74
2023/04/09 00:10:56;;;;;;;;;;;8.20;99.90;;;;;;5014133;28;20284;-74
2023/04/09 00:13:21;;;;;;;;;;;8.20;99.90;;;;;;5033037;28;19925;-74
2023/04/09 00:15:47;;;;;;;;;;;8.20;99.90;;;;;;5018432;28;20310;-73
2023/04/09 00:18:13;;;;;;;;;;;8.20;99.90;;;;;;5017299;28;19947;-74
2023/04/09 00:20:38;;;;;;;;;;;8.20;99.90;;;;;;5018902;28;19932;-74
2023/04/09 00:23:04;;;;;;;;;;;8.20;99.90;;;;;;5018468;28;19925;-74
2023/04/09 00:25:29;;;;;;;;;;;8.50;99.90;;;;;;5017740;28;19975;-74
2023/04/09 00:27:55;;;;;;;;;;;8.20;99.90;;;;;;5033822;28;19928;-74
2023/04/09 00:30:21;;;;;;;;;;;8.60;99.90;;;;;;5036353;28;19925;-74
2023/04/09 00:32:46;;;;;;;;;;;8.20;99.90;;;;;;5017519;28;20365;-74
2023/04/09 00:35:12;;;;;;;;;;;8.20;99.90;;;;;;5035580;28;19925;-74
2023/04/09 00:37:37;;;;;;;;;;;8.20;99.90;;;;;;5017637;28;20320;-74
2023/04/09 00:40:03;;;;;;;;;;;8.20;99.90;;;;;;5016594;28;20295;-74
2023/04/09 00:42:32;;;;;;;;;;;8.20;99.90;;;;;;5016214;28;19928;-74
2023/04/09 00:44:58;;;;;;;;;;;8.20;99.90;;;;;;5016297;28;20273;-74
2023/04/09 00:47:24;;;;;;;;;;;8.20;99.90;;;;;;4997561;28;19921;-74
2023/04/09 00:49:49;;;;;;;;;;;8.60;99.90;;;;;;5016299;28;20052;-74
2023/04/09 00:52:15;;;;;;;;;;;8.20;99.90;;;;;;5016004;28;20400;-74
2023/04/09 00:54:40;;;;;;;;;;;8.20;99.90;;;;;;4997705;28;19928;-74
2023/04/09 00:57:06;;;;;;;;;;;8.20;99.90;;;;;;5016493;28;19922;-74
2023/04/09 00:59:31;;;;;;;;;;;8.30;99.90;;;;;;4998558;28;19921;-74
2023/04/09 01:01:57;;;;;;;;;;;8.30;99.90;;;;;;5009430;28;19928;-74
2023/04/09 01:04:23;;;;;;;;;;;8.30;99.90;;;;;;5033902;28;19925;-74
2023/04/09 01:07:00;;;;;;;;;;;8.30;99.90;;;;;;5018037;28;19948;-74
2023/04/09 01:09:29;;;;;;;;;;;8.30;99.90;;;;;;5017866;28;19921;-74
2023/04/09 01:12:29;;;;;;;;;;;8.30;99.90;;;;;;5017337;28;19920;-74
2023/04/09 01:15:02;;;;;;;;;;;8.30;99.90;;;;;;5016173;28;20364;-73
2023/04/09 01:17:42;;;;;;;;;;;8.30;99.90;;;;;;5001451;28;19980;-74
2023/04/09 01:20:20;;;;;;;;;;;8.30;99.90;;;;;;5015424;28;19944;-74
2023/04/09 01:22:55;;;;;;;;;;;8.40;99.90;;;;;;4997158;28;19921;-74
2023/04/09 01:25:39;;;;;;;;;;;8.30;99.90;;;;;;4996498;28;19921;-74
2023/04/09 01:28:16;;;;;;;;;;;8.30;99.90;;;;;;4996725;28;19921;-74
2023/04/09 01:30:45;;;;;;;;;;;8.40;99.90;;;;;;5016546;28;19929;-73
2023/04/09 01:33:11;;;;;;;;;;;8.40;99.90;;;;;;5034944;28;19932;-73
2023/04/09 01:35:37;;;;;;;;;;;8.40;99.90;;;;;;5034321;28;19925;-73
2023/04/09 01:38:03;;;;;;;;;;;8.50;99.90;;;;;;5016974;28;19929;-73
2023/04/09 01:40:31;;;;;;;;;;;8.40;99.90;;;;;;5033708;28;19921;-74
2023/04/09 01:42:57;;;;;;;;;;;8.40;99.90;;;;;;5016100;28;19928;-73
2023/04/09 01:45:23;;;;;;;;;;;8.40;99.90;;;;;;5008426;28;19933;-74
2023/04/09 01:47:49;;;;;;;;;;;8.40;99.90;;;;;;4997740;28;19922;-74
2023/04/09 01:50:15;;;;;;;;;;;8.40;99.90;;;;;;5023539;28;20365;-74
2023/04/09 01:52:43;;;;;;;;;;;8.40;99.90;;;;;;5034647;28;19972;-74
2023/04/09 01:55:08;;;;;;;;;;;8.40;99.90;;;;;;5034385;28;20043;-74
2023/04/09 01:57:34;;;;;;;;;;;8.40;99.90;;;;;;5034234;28;20017;-74
2023/04/09 01:59:59;;;;;;;;;;;8.40;99.90;;;;;;5033693;28;19975;-73
2023/04/09 02:02:45;;;;;;;;;;;8.80;99.90;;;;;;5016930;28;19925;-73
2023/04/09 02:05:13;;;;;;;;;;;8.40;99.90;;;;;;5032609;28;19971;-74
2023/04/09 02:07:43;;;;;;;;;;;8.40;99.90;;;;;;5034313;28;19921;-74
2023/04/09 02:10:09;;;;;;;;;;;8.40;99.90;;;;;;5014729;28;20288;-74
2023/04/09 02:12:36;;;;;;;;;;;8.40;99.90;;;;;;5015243;28;19921;-74
2023/04/09 02:15:02;;;;;;;;;;;8.40;99.90;;;;;;5015628;28;19967;-74
2023/04/09 02:17:27;;;;;;;;;;;9.40;99.90;;;;;;5033375;28;19932;-74
2023/04/09 02:19:53;;;;;;;;;;;8.40;99.90;;;;;;4996295;28;19925;-74
2023/04/09 02:22:18;;;;;;;;;;;8.50;99.90;;;;;;4996697;28;19968;-74
2023/04/09 02:24:44;;;;;;;;;;;8.40;99.90;;;;;;4995939;28;20328;-73
2023/04/09 02:27:10;;;;;;;;;;;8.40;99.90;;;;;;5014280;28;20133;-74
2023/04/09 02:29:35;;;;;;;;;;;8.40;99.90;;;;;;4996309;28;20012;-73
2023/04/09 02:32:01;;;;;;;;;;;8.80;99.90;;;;;;5013025;28;19975;-74
2023/04/09 02:34:27;;;;;;;;;;;8.90;99.90;;;;;;4996165;28;20022;-74
2023/04/09 02:36:52;;;;;;;;;;;8.40;99.90;;;;;;5014047;28;19925;-74
2023/04/09 02:39:18;;;;;;;;;;;8.30;99.90;;;;;;4995188;28;20373;-74
2023/04/09 02:41:44;;;;;;;;;;;8.30;99.90;;;;;;5014162;28;19925;-74
2023/04/09 02:44:10;;;;;;;;;;;8.30;99.90;;;;;;5013787;28;19988;-74
2023/04/09 02:46:37;;;;;;;;;;;8.70;99.90;;;;;;5002829;28;19920;-74
2023/04/09 02:49:02;;;;;;;;;;;8.30;99.90;;;;;;5015809;28;19928;-74
2023/04/09 02:51:28;;;;;;;;;;;8.30;99.90;;;;;;5015672;28;19921;-74
2023/04/09 02:53:53;;;;;;;;;;;8.30;99.90;;;;;;5016657;28;20377;-73
2023/04/09 02:56:19;;;;;;;;;;;8.30;99.90;;;;;;4995942;28;19921;-73
2023/04/09 02:58:50;;;;;;;;;;;8.30;99.90;;;;;;4995958;28;20329;-74
2023/04/09 03:01:15;;;;;;;;;;;8.30;99.90;;;;;;5012806;28;19922;-73
2023/04/09 03:03:41;;;;;;;;;;;8.50;99.90;;;;;;5022864;28;19920;-74
2023/04/09 03:06:07;;;;;;;;;;;8.40;99.90;;;;;;5033149;28;19921;-74
2023/04/09 03:08:32;;;;;;;;;;;8.40;99.90;;;;;;5014947;28;19925;-74
2023/04/09 03:10:58;;;;;;;;;;;8.40;99.90;;;;;;5031459;28;19921;-74
2023/04/09 03:13:23;;;;;;;;;;;8.40;99.90;;;;;;5015381;28;20296;-74
2023/04/09 03:15:52;;;;;;;;;;;8.40;99.90;;;;;;5014588;28;19931;-74
2023/04/09 03:18:17;;;;;;;;;;;8.40;99.90;;;;;;5033389;28;19920;-74
2023/04/09 03:20:43;;;;;;;;;;;8.30;99.90;;;;;;5032358;28;20280;-74
2023/04/09 03:23:09;;;;;;;;;;;8.20;99.90;;;;;;5028247;28;19922;-73
2023/04/09 03:25:34;;;;;;;;;;;8.20;99.90;;;;;;5013447;28;19929;-75
2023/04/09 03:28:00;;;;;;;;;;;8.20;99.90;;;;;;4995343;28;19928;-75
2023/04/09 03:30:25;;;;;;;;;;;8.10;99.90;;;;;;4995482;28;19930;-73
2023/04/09 03:32:51;;;;;;;;;;;8.20;99.90;;;;;;4995237;28;19929;-75
2023/04/09 03:35:17;;;;;;;;;;;9.10;99.90;;;;;;5012659;28;19975;-75
2023/04/09 03:37:42;;;;;;;;;;;8.00;99.90;;;;;;5013204;28;19932;-75
2023/04/09 03:40:08;;;;;;;;;;;8.00;99.90;;;;;;4995058;28;19921;-75
2023/04/09 03:42:34;;;;;;;;;;;8.00;99.90;;;;;;5012458;28;20285;-75
2023/04/09 03:45:00;;;;;;;;;;;8.00;99.90;;;;;;5012847;28;19932;-75
2023/04/09 03:47:25;;;;;;;;;;;8.00;99.90;;;;;;5012991;28;19929;-75
2023/04/09 03:49:54;;;;;;;;;;;8.00;99.90;;;;;;5015483;28;19927;-75
2023/04/09 03:52:19;;;;;;;;;;;7.90;99.90;;;;;;4999177;28;20357;-75
2023/04/09 03:54:45;;;;;;;;;;;8.00;99.90;;;;;;4999408;28;19968;-74
2023/04/09 03:57:11;;;;;;;;;;;7.90;99.90;;;;;;5015755;28;19925;-74
2023/04/09 03:59:36;;;;;;;;;;;7.90;99.90;;;;;;5017085;28;20008;-75
2023/04/09 04:02:02;;;;;;;;;;;7.90;99.90;;;;;;5017183;28;19930;-75
2023/04/09 04:04:27;;;;;;;;;;;7.90;99.90;;;;;;4998543;28;19928;-75
2023/04/09 04:06:53;;;;;;;;;;;7.90;99.90;;;;;;5016561;28;19925;-74
2023/04/09 04:09:18;;;;;;;;;;;7.80;99.90;;;;;;4999489;28;19921;-73
2023/04/09 04:11:44;;;;;;;;;;;7.80;99.90;;;;;;4998217;28;19926;-73
2023/04/09 04:14:09;;;;;;;;;;;8.10;99.90;;;;;;5016287;28;19944;-73
2023/04/09 04:16:35;;;;;;;;;;;7.80;99.90;;;;;;4999352;28;20016;-73
2023/04/09 04:19:01;;;;;;;;;;;7.70;99.90;;;;;;5015687;28;19975;-73
2023/04/09 04:21:26;;;;;;;;;;;7.70;99.90;;;;;;4998846;28;19922;-73
2023/04/09 04:23:52;;;;;;;;;;;8.30;99.90;;;;;;5015814;28;19975;-73
2023/04/09 04:26:17;;;;;;;;;;;7.70;99.90;;;;;;4998387;28;19936;-73
2023/04/09 04:28:46;;;;;;;;;;;7.80;99.90;;;;;;4998745;28;20385;-73
2023/04/09 04:31:11;;;;;;;;;;;7.70;99.90;;;;;;4997721;28;19921;-73
2023/04/09 04:33:38;;;;;;;;;;;7.70;99.90;;;;;;5016445;28;19921;-73
2023/04/09 04:36:07;;;;;;;;;;;7.70;99.90;;;;;;4998737;28;20337;-73
2023/04/09 04:38:33;;;;;;;;;;;7.70;99.90;;;;;;5020099;28;20031;-73
2023/04/09 04:41:02;;;;;;;;;;;7.70;99.90;;;;;;5016105;28;19921;-74
2023/04/09 04:43:27;;;;;;;;;;;7.70;99.90;;;;;;5035122;28;20435;-73
2023/04/09 04:45:53;;;;;;;;;;;7.70;99.90;;;;;;5017377;28;19925;-73
2023/04/09 04:48:19;;;;;;;;;;;7.70;99.90;;;;;;5018260;28;19948;-73
2023/04/09 04:50:44;;;;;;;;;;;7.70;99.90;;;;;;5007666;28;19924;-73
2023/04/09 04:53:10;;;;;;;;;;;8.40;99.90;;;;;;4997819;28;20124;-73
2023/04/09 04:55:36;;;;;;;;;;;7.70;99.90;;;;;;5018180;28;19975;-73
2023/04/09 04:58:01;;;;;;;;;;;8.30;99.90;;;;;;5026029;28;19921;-73
2023/04/09 05:00:27;;;;;;;;;;;7.80;99.90;;;;;;5003584;28;19928;-72
2023/04/09 05:02:52;;;;;;;;;;;7.80;99.90;;;;;;5015417;28;20282;-73
2023/04/09 05:05:18;;;;;;;;;;;8.20;99.90;;;;;;5015973;28;20353;-74
2023/04/09 05:07:43;;;;;;;;;;;7.70;99.90;;;;;;5014876;28;19928;-72
2023/04/09 05:10:09;;;;;;;;;;;7.70;99.90;;;;;;5017518;28;19944;-73
2023/04/09 05:12:35;;;;;;;;;;;7.80;99.90;;;;;;5031809;28;19921;-73
2023/04/09 05:15:00;;;;;;;;;;;7.80;99.90;;;;;;5010009;28;19921;-73
2023/04/09 05:17:26;;;;;;;;;;;7.80;99.90;;;;;;5005722;28;19921;-73
2023/04/09 05:19:52;;;;;;;;;;;8.40;99.90;;;;;;5014996;28;19922;-73
2023/04/09 05:22:18;;;;;;;;;;;7.70;99.90;;;;;;4997179;28;20008;-73
2023/04/09 05:24:43;;;;;;;;;;;7.70;99.90;;;;;;4997769;28;19925;-73
2023/04/09 05:27:09;;;;;;;;;;;7.80;99.90;;;;;;5019949;28;19921;-73
2023/04/09 05:29:34;;;;;;;;;;;7.70;99.90;;;;;;5007869;28;19921;-73
2023/04/09 05:32:00;;;;;;;;;;;7.70;99.90;;;;;;5007238;28;19932;-73
2023/04/09 05:34:25;;;;;;;;;;;7.70;99.90;;;;;;5003968;28;19922;-73
2023/04/09 05:36:51;;;;;;;;;;;8.00;99.90;;;;;;5023383;28;19929;-74
2023/04/09 05:39:17;;;;;;;;;;;7.60;99.90;;;;;;4998183;28;19928;-74
2023/04/09 05:41:43;;;;;;;;;;;7.60;99.90;;;;;;4993851;28;19926;-74
2023/04/09 05:44:12;;;;;;;;;;;7.60;99.90;;;;;;4995157;28;20012;-75
2023/04/09 05:46:37;;;;;;;;;;;7.70;99.90;;;;;;4995493;28;20459;-74
2023/04/09 05:49:03;;;;;;;;;;;8.30;99.90;;;;;;4994336;28;19925;-74
2023/04/09 05:51:28;;;;;;;;;;;7.70;99.90;;;;;;4995322;28;20294;-74
2023/04/09 05:53:54;;;;;;;;;;;8.80;99.90;;;;;;4994712;28;19937;-75
2023/04/09 05:56:28;;;;;;;;;;;7.70;99.90;;;;;;4993474;28;19926;-72
2023/04/09 05:58:54;;;;;;;;;;;7.70;99.90;;;;;;4993781;28;19929;-73
2023/04/09 06:01:20;;;;;;;;;;;8.20;99.90;;;;;;5006360;28;19921;-73
2023/04/09 06:03:45;;;;;;;;;;;7.90;99.90;;;;;;5012822;28;19921;-73
2023/04/09 06:06:11;;;;;;;;;;;7.70;99.90;;;;;;5012992;28;19956;-73
2023/04/09 06:08:37;;;;;;;;;;;7.90;99.90;;;;;;5003317;28;19921;-73
2023/04/09 06:11:02;;;;;;;;;;;7.80;99.90;;;;;;4993461;28;19926;-73
2023/04/09 06:13:28;;;;;;;;;;;7.90;99.90;;;;;;4993731;28;20361;-72
2023/04/09 06:15:54;;;;;;;;;;;7.90;99.90;;;;;;4993048;28;19921;-73
2023/04/09 06:18:19;;;;;;;;;;;8.50;99.90;;;;;;4993779;28;19921;-73
2023/04/09 06:20:45;;;;;;;;;;;8.60;99.90;;;;;;4994639;28;19921;-73
2023/04/09 06:23:13;;;;;;;;;;;7.90;99.90;;;;;;4997870;28;19932;-73
2023/04/09 06:25:41;;;;;;;;;;;7.90;99.90;;;;;;4992568;28;19922;-74
2023/04/09 06:28:07;;;;;;;;;;;7.90;99.90;;;;;;5001136;28;19921;-74
2023/04/09 06:30:35;;;;;;;;;;;7.90;99.90;;;;;;5012214;28;20241;-74
2023/04/09 06:33:01;;;;;;;;;;;7.90;99.90;;;;;;5013781;28;19921;-74
2023/04/09 06:35:26;;;;;;;;;;;8.20;99.90;;;;;;5012697;28;19969;-73
2023/04/09 06:37:52;;;;;;;;;;;8.00;99.90;;;;;;5002326;28;19980;-74
2023/04/09 06:40:17;;;;;;;;;;;8.00;99.90;;;;;;5003726;28;19921;-73
2023/04/09 06:42:43;;;;;;;;;;;8.00;99.90;;;;;;5031336;28;19925;-74
2023/04/09 06:45:08;;;;;;;;;;;8.00;99.90;;;;;;5014426;28;19956;-74
2023/04/09 06:47:34;;;;;;;;;;;8.00;99.90;;;;;;5032871;28;20004;-74
2023/04/09 06:50:00;;;;;;;;;;;8.00;99.90;;;;;;5004238;28;19920;-74
2023/04/09 06:52:25;;;;;;;;;;;8.30;99.90;;;;;;5037075;28;19929;-74
2023/04/09 06:54:51;;;;;;;;;;;8.00;99.90;;;;;;5024390;28;19967;-73
2023/04/09 06:57:16;;;;;;;;;;;8.00;99.90;;;;;;5011885;28;19921;-74
2023/04/09 06:59:42;;;;;;;;;;;8.10;99.90;;;;;;5013099;28;19928;-75
2023/04/09 07:02:08;;;;;;;;;;;8.10;99.90;;;;;;5009659;28;19922;-76
2023/04/09 07:04:33;;;;;;;;;;;8.10;99.90;;;;;;5022162;28;19932;-74
2023/04/09 07:06:59;;;;;;;;;;;8.10;99.90;;;;;;5002380;28;20329;-74
2023/04/09 07:09:27;;;;;;;;;;;8.20;99.90;;;;;;5015876;28;19921;-78
2023/04/09 07:11:53;;;;;;;;;;;8.30;99.90;;;;;;4995944;28;19932;-75
2023/04/09 07:14:19;;;;;;;;;;;8.30;99.90;;;;;;5008116;28;19927;-74
2023/04/09 07:16:45;;;;;;;;;;;8.20;99.90;;;;;;5014928;28;19921;-73
2023/04/09 07:19:11;;;;;;;;;;;8.20;99.90;;;;;;5012108;28;20082;-74
2023/04/09 07:21:36;;;;;;;;;;;8.30;99.90;;;;;;4998062;28;20020;-77
2023/04/09 07:24:02;;;;;;;;;;;8.30;99.90;;;;;;5015069;28;20009;-76
2023/04/09 07:26:28;;;;;;;;;;;8.30;99.90;;;;;;5007509;28;19921;-74
2023/04/09 07:28:54;;;;;;;;;;;8.40;99.90;;;;;;5004726;28;19928;-78
2023/04/09 07:31:20;;;;;;;;;;;8.40;99.90;;;;;;5000030;28;19922;-74
2023/04/09 07:33:46;;;;;;;;;;;8.40;99.90;;;;;;5029061;28;20287;-79
2023/04/09 07:36:11;;;;;;;;;;;8.50;99.90;;;;;;4998353;28;19971;-76
2023/04/09 07:38:40;;;;;;;;;;;8.50;99.90;;;;;;4999496;28;19921;-76
2023/04/09 07:41:06;;;;;;;;;;;8.50;99.90;;;;;;5028370;28;19933;-72
2023/04/09 07:43:31;;;;;;;;;;;8.40;99.90;;;;;;5019737;28;19925;-75
2023/04/09 07:45:57;;;;;;;;;;;8.40;99.90;;;;;;5011497;28;19927;-76
2023/04/09 07:48:22;;;;;;;;;;;8.40;99.90;;;;;;5022078;28;19925;-72
2023/04/09 07:50:48;;;;;;;;;;;8.40;99.90;;;;;;5005325;28;19964;-72
2023/04/09 07:53:14;;;;;;;;;;;9.00;99.90;;;;;;5001051;28;19921;-72
2023/04/09 07:55:39;;;;;;;;;;;8.40;99.90;;;;;;5011891;28;19928;-73
2023/04/09 07:58:06;;;;;;;;;;;8.40;99.90;;;;;;5004468;28;19921;-72
2023/04/09 08:00:31;;;;;;;;;;;8.40;99.90;;;;;;5016723;28;19974;-72
2023/04/09 08:02:57;;;;;;;;;;;8.40;99.90;;;;;;5009930;28;19922;-74
2023/04/09 08:05:23;;;;;;;;;;;8.50;99.90;;;;;;5025495;28;19929;-72
2023/04/09 08:07:52;;;;;;;;;;;8.40;99.90;;;;;;5014021;28;19928;-75
2023/04/09 08:10:17;;;;;;;;;;;8.40;99.90;;;;;;5024981;28;20424;-76
2023/04/09 08:12:43;;;;;;;;;;;8.40;99.90;;;;;;5013955;28;19976;-73
2023/04/09 08:15:09;;;;;;;;;;;8.40;99.90;;;;;;5021322;28;19990;-76
2023/04/09 08:17:36;;;;;;;;;;;8.30;99.90;;;;;;5008808;28;19928;-75
2023/04/09 08:20:02;;;;;;;;;;;8.40;99.90;;;;;;5030596;28;19928;-71
2023/04/09 08:22:28;;;;;;;;;;;8.40;99.90;;;;;;5026572;28;20345;-73
2023/04/09 08:24:56;;;;;;;;;;;8.30;99.90;;;;;;5002029;28;19925;-72
2023/04/09 08:27:22;;;;;;;;;;;8.40;99.90;;;;;;5032181;28;19921;-72
2023/04/09 08:29:48;;;;;;;;;;;8.60;99.90;;;;;;5012800;28;19971;-72
2023/04/09 08:32:13;;;;;;;;;;;8.60;99.90;;;;;;5031215;28;19960;-72
2023/04/09 08:34:39;;;;;;;;;;;8.60;99.90;;;;;;5014770;28;20341;-72
2023/04/09 08:37:05;;;;;;;;;;;8.60;99.90;;;;;;5035185;28;20403;-72
2023/04/09 08:39:31;;;;;;;;;;;8.50;99.90;;;;;;5018319;28;19990;-72
2023/04/09 08:42:00;;;;;;;;;;;8.50;99.90;;;;;;5035676;28;19921;-72
2023/04/09 08:44:26;;;;;;;;;;;8.50;99.90;;;;;;5016710;28;19968;-72
2023/04/09 08:46:54;;;;;;;;;;;8.70;99.90;;;;;;5015944;28;19953;-72
2023/04/09 08:49:20;;;;;;;;;;;8.50;99.90;;;;;;5016337;28;19921;-72
2023/04/09 08:51:49;;;;;;;;;;;8.50;99.90;;;;;;4997963;28;20029;-72
2023/04/09 08:54:26;;;;;;;;;;;8.50;99.90;;;;;;4998108;28;20012;-72
2023/04/09 08:56:52;;;;;;;;;;;8.60;99.90;;;;;;5015544;28;19927;-72
2023/04/09 08:59:18;;;;;;;;;;;8.60;99.90;;;;;;5015177;28;19921;-73
2023/04/09 09:01:51;;;;;;;;;;;8.60;99.90;;;;;;5016070;28;19933;-73
2023/04/09 09:04:16;;;;;;;;;;;8.60;99.90;;;;;;4998354;28;19921;-73
2023/04/09 09:06:43;;;;;;;;;;;8.70;99.90;;;;;;5015239;28;19948;-74
2023/04/09 09:09:15;;;;;;;;;;;8.70;99.90;;;;;;5015721;28;20056;-74
2023/04/09 09:11:45;;;;;;;;;;;8.70;99.90;;;;;;5015584;28;19922;-73
2023/04/09 09:14:30;;;;;;;;;;;8.70;99.90;;;;;;5014566;28;19925;-74
2023/04/09 09:16:56;;;;;;;;;;;8.90;99.90;;;;;;5011232;28;20047;-73
2023/04/09 09:19:24;;;;;;;;;;;8.70;99.90;;;;;;5018130;28;20364;-74
2023/04/09 09:22:03;;;;;;;;;;;8.70;99.90;;;;;;5035021;28;19921;-74
2023/04/09 09:24:31;;;;;;;;;;;8.70;99.90;;;;;;5017433;28;19928;-74
2023/04/09 09:26:57;;;;;;;;;;;9.00;99.90;;;;;;5038124;28;20372;-73
2023/04/09 09:29:26;;;;;;;;;;;8.70;99.90;;;;;;5044816;28;19927;-73
2023/04/09 09:31:53;;;;;;;;;;;8.70;99.90;;;;;;5037038;28;20415;-73
2023/04/09 09:34:19;;;;;;;;;;;8.80;99.90;;;;;;5016924;28;19965;-73
2023/04/09 09:36:45;;;;;;;;;;;8.80;99.90;;;;;;5021369;28;19936;-73
2023/04/09 09:39:12;;;;;;;;;;;8.80;99.90;;;;;;5015369;28;19925;-73
2023/04/09 09:41:38;;;;;;;;;;;8.90;99.90;;;;;;4997390;28;19922;-73
2023/04/09 09:44:06;;;;;;;;;;;9.00;99.90;;;;;;5015620;28;20028;-73
2023/04/09 09:46:36;;;;;;;;;;;9.10;99.90;;;;;;4999400;28;19928;-73
2023/04/09 09:49:01;;;;;;;;;;;9.00;99.90;;;;;;5016830;28;19943;-73
2023/04/09 09:51:27;;;;;;;;;;;9.10;99.90;;;;;;5016626;28;20417;-73
2023/04/09 09:53:56;;;;;;;;;;;9.00;99.90;;;;;;5018082;28;19993;-73
2023/04/09 09:56:31;;;;;;;;;;;8.90;99.90;;;;;;5017592;28;19921;-72
2023/04/09 09:59:18;;;;;;;;;;;9.60;99.90;;;;;;5017919;28;20276;-72
2023/04/09 10:01:44;;;;;;;;;;;8.90;99.90;;;;;;5009143;28;19921;-73
2023/04/09 10:04:12;;;;;;;;;;;8.90;99.90;;;;;;5037459;28;19925;-73
2023/04/09 10:06:42;;;;;;;;;;;9.00;99.90;;;;;;5019386;28;19961;-73
2023/04/09 10:09:08;;;;;;;;;;;8.90;99.90;;;;;;5018577;28;19921;-72
2023/04/09 10:11:46;;;;;;;;;;;9.00;99.90;;;;;;5037608;28;19928;-73
2023/04/09 10:14:12;;;;;;;;;;;8.90;99.90;;;;;;5036882;28;19967;-74
2023/04/09 10:16:38;;;;;;;;;;;8.90;99.90;;;;;;5019136;28;19925;-73
2023/04/09 10:19:03;;;;;;;;;;;8.90;99.90;;;;;;5034313;28;19947;-73
2023/04/09 10:21:48;;;;;;;;;;;8.90;99.90;;;;;;5034650;28;19928;-73
2023/04/09 10:24:14;;;;;;;;;;;8.90;99.90;;;;;;5015438;28;19932;-74
2023/04/09 10:26:40;;;;;;;;;;;9.00;99.90;;;;;;5016390;28;19917;-73
2023/04/09 10:29:13;;;;;;;;;;;9.00;99.90;;;;;;5034555;28;19928;-74
2023/04/09 10:31:57;;;;;;;;;;;9.00;99.90;;;;;;5035491;28;19921;-73
2023/04/09 10:34:25;;;;;;;;;;;9.00;99.90;;;;;;5011301;28;19925;-73
2023/04/09 10:36:54;;;;;;;;;;;9.10;99.90;;;;;;5014039;28;19921;-73
2023/04/09 10:39:20;;;;;;;;;;;9.30;99.90;;;;;;5014330;28;20423;-73
2023/04/09 10:41:47;;;;;;;;;;;9.20;99.90;;;;;;5014517;28;19921;-74
2023/04/09 10:44:20;;;;;;;;;;;9.20;99.90;;;;;;5012977;28;19960;-73
2023/04/09 10:46:46;;;;;;;;;;;9.30;99.90;;;;;;5014131;28;20480;-73
2023/04/09 10:49:12;;;;;;;;;;;9.40;99.90;;;;;;5013551;28;19983;-74
2023/04/09 10:51:38;;;;;;;;;;;9.50;99.90;;;;;;4998630;28;19960;-73
2023/04/09 10:54:45;;;;;;;;;;;9.50;99.90;;;;;;4999356;28;20016;-73
2023/04/09 10:57:15;;;;;;;;;;;9.60;99.90;;;;;;4932755;29;19948;-73
2023/04/09 10:59:53;;;;;;;;;;;9.60;99.90;;;;;;4923763;29;19926;-73
2023/04/09 11:02:24;;;;;;;;;;;9.70;99.90;;;;;;4979939;28;19928;-73
2023/04/09 11:04:53;;;;;;;;;;;9.60;99.90;;;;;;4995350;28;19924;-73
2023/04/09 11:07:21;;;;;;;;;;;9.90;99.90;;;;;;5013836;28;20316;-73
2023/04/09 11:09:46;;;;;;;;;;;9.80;99.90;;;;;;5001831;28;19964;-73
2023/04/09 11:12:12;;;;;;;;;;;9.90;99.90;;;;;;5014630;28;19959;-73
2023/04/09 11:14:37;;;;;;;;;;;10.00;99.90;;;;;;5033141;28;20055;-73
2023/04/09 11:17:03;;;;;;;;;;;10.10;99.90;;;;;;5032916;28;19961;-73
2023/04/09 11:19:28;;;;;;;;;;;10.30;99.90;;;;;;5032314;28;20428;-73
2023/04/09 11:21:55;;;;;;;;;;;10.20;99.90;;;;;;5032787;28;19923;-73
2023/04/09 11:24:20;;;;;;;;;;;10.20;99.90;;;;;;5033271;28;19921;-73
2023/04/09 11:26:47;;;;;;;;;;;10.20;99.90;;;;;;5014662;28;20008;-73
2023/04/09 11:29:13;;;;;;;;;;;10.20;99.90;;;;;;5032718;28;19984;-75
2023/04/09 11:31:42;;;;;;;;;;;10.40;99.90;;;;;;5032653;28;19924;-73
2023/04/09 11:34:08;;;;;;;;;;;10.60;99.90;;;;;;5014083;28;19921;-74
2023/04/09 11:36:34;;;;;;;;;;;10.70;99.90;;;;;;5015477;28;19947;-73
2023/04/09 11:39:01;;;;;;;;;;;10.70;99.90;;;;;;5014783;28;19925;-73
2023/04/09 11:41:32;;;;;;;;;;;10.90;99.90;;;;;;5031680;28;19967;-73
2023/04/09 11:43:58;;;;;;;;;;;11.00;99.90;;;;;;5015000;28;19971;-73
2023/04/09 11:46:25;;;;;;;;;;;11.20;99.90;;;;;;5033015;28;19921;-74
2023/04/09 11:48:51;;;;;;;;;;;11.60;99.90;;;;;;5014449;28;19967;-74
2023/04/09 11:51:18;;;;;;;;;;;12.20;99.90;;;;;;5031514;28;20334;-74
2023/04/09 11:53:43;;;;;;;;;;;13.20;99.90;;;;;;5032750;28;19929;-74
2023/04/09 11:56:09;;;;;;;;;;;13.90;99.90;;;;;;5014043;28;20285;-74
2023/04/09 11:58:35;;;;;;;;;;;14.70;99.90;;;;;;5032957;28;19921;-75
2023/04/09 12:01:00;;;;;;;;;;;15.20;99.90;;;;;;5015303;28;20276;-74
2023/04/09 12:03:26;;;;;;;;;;;15.70;99.90;;;;;;4995069;28;19921;-74
2023/04/09 12:05:52;;;;;;;;;;;15.80;99.90;;;;;;5012861;28;20024;-74
2023/04/09 12:08:22;;;;;;;;;;;16.00;99.90;;;;;;5026097;28;20067;-74
2023/04/09 12:10:47;;;;;;;;;;;15.50;99.90;;;;;;5036222;28;20308;-74
2023/04/09 12:13:15;;;;;;;;;;;15.30;99.90;;;;;;5036589;28;19940;-74
2023/04/09 12:15:42;;;;;;;;;;;15.70;99.90;;;;;;5023054;28;20002;-73
2023/04/09 12:18:08;;;;;;;;;;;16.30;99.90;;;;;;5021940;28;20011;-74
2023/04/09 12:20:41;;;;;;;;;;;16.50;99.90;;;;;;4999318;28;19976;-74
2023/04/09 12:23:07;;;;;;;;;;;17.00;99.90;;;;;;4998066;28;19971;-74
2023/04/09 12:25:34;;;;;;;;;;;17.30;99.90;;;;;;4999099;28;19921;-74
2023/04/09 12:28:00;;;;;;;;;;;17.60;99.90;;;;;;5016494;28;19929;-75
2023/04/09 12:30:26;;;;;;;;;;;17.70;99.90;;;;;;5015776;28;19917;-74
2023/04/09 12:32:52;;;;;;;;;;;17.80;99.90;;;;;;4998661;28;20281;-74
2023/04/09 12:35:18;;;;;;;;;;;17.80;99.90;;;;;;5016296;28;19925;-74
2023/04/09 12:37:44;;;;;;;;;;;17.70;99.90;;;;;;5015904;28;20503;-74
2023/04/09 12:40:13;;;;;;;;;;;17.60;99.80;;;;;;5015575;28;19976;-74
2023/04/09 12:42:42;;;;;;;;;;;17.50;99.90;;;;;;4998691;28;19976;-73
2023/04/09 12:45:09;;;;;;;;;;;17.00;99.90;;;;;;5015112;28;20411;-74
2023/04/09 12:47:34;;;;;;;;;;;16.90;99.90;;;;;;5016045;28;19960;-74
2023/04/09 12:50:00;;;;;;;;;;;17.20;99.90;;;;;;4998926;28;19964;-80
2023/04/09 12:52:26;;;;;;;;;;;17.50;99.90;;;;;;5015172;28;19922;-78
2023/04/09 12:54:51;;;;;;;;;;;17.90;99.90;;;;;;4998038;28;19921;-78
2023/04/09 12:57:20;;;;;;;;;;;18.00;99.90;;;;;;5015772;28;19921;-77
2023/04/09 12:59:45;;;;;;;;;;;17.90;99.90;;;;;;5015953;28;20391;-75
2023/04/09 13:02:11;;;;;;;;;;;17.70;99.80;;;;;;4998003;28;19929;-74
2023/04/09 13:04:36;;;;;;;;;;;17.60;99.90;;;;;;5012605;28;19924;-74
2023/04/09 13:07:02;;;;;;;;;;;17.40;99.90;;;;;;5017388;28;19917;-75
2023/04/09 13:09:27;;;;;;;;;;;17.00;99.90;;;;;;5035388;28;20396;-75
2023/04/09 13:11:53;;;;;;;;;;;16.60;99.90;;;;;;5034516;28;19925;-73
2023/04/09 13:14:18;;;;;;;;;;;16.70;99.90;;;;;;5017596;28;19968;-74
2023/04/09 13:16:44;;;;;;;;;;;16.50;99.90;;;;;;5035348;28;20404;-74
2023/04/09 13:19:10;;;;;;;;;;;16.20;99.90;;;;;;5016597;28;19943;-74
2023/04/09 13:21:35;;;;;;;;;;;16.00;99.90;;;;;;5016138;28;19921;-74
2023/04/09 13:24:02;;;;;;;;;;;16.20;99.90;;;;;;5015380;28;19922;-74
2023/04/09 13:26:27;;;;;;;;;;;16.20;99.90;;;;;;5014838;28;19921;-73
2023/04/09 13:28:53;;;;;;;;;;;15.90;99.90;;;;;;4997581;28;20472;-74
2023/04/09 13:31:18;;;;;;;;;;;15.80;99.90;;;;;;4998787;28;19921;-73
2023/04/09 13:33:44;;;;;;;;;;;15.80;99.90;;;;;;4997497;28;19947;-74
2023/04/09 13:36:10;;;;;;;;;;;16.10;99.90;;;;;;4997359;28;20038;-74
2023/04/09 13:38:36;;;;;;;;;;;16.40;99.90;;;;;;5014705;28;19921;-74
2023/04/09 13:41:02;;;;;;;;;;;16.50;99.90;;;;;;5014226;28;19928;-73
2023/04/09 13:43:28;;;;;;;;;;;16.40;99.90;;;;;;4997684;28;20446;-74
2023/04/09 13:45:54;;;;;;;;;;;16.80;99.90;;;;;;4997051;28;19933;-74
2023/04/09 13:48:20;;;;;;;;;;;16.90;99.40;;;;;;5014207;28;19921;-74
2023/04/09 13:50:45;;;;;;;;;;;16.90;99.10;;;;;;4997290;28;19921;-74
2023/04/09 13:53:11;;;;;;;;;;;16.70;99.60;;;;;;5014821;28;19927;-75
2023/04/09 13:55:37;;;;;;;;;;;16.80;99.90;;;;;;4997177;28;19921;-75
2023/04/09 13:58:03;;;;;;;;;;;17.00;99.60;;;;;;4997560;28;20266;-74
2023/04/09 14:00:29;;;;;;;;;;;16.90;99.40;;;;;;5003177;28;19917;-76
2023/04/09 14:02:55;;;;;;;;;;;16.90;99.70;;;;;;5009227;28;19976;-75
2023/04/09 14:05:20;;;;;;;;;;;16.80;99.00;;;;;;5015183;28;19977;-74
2023/04/09 14:07:46;;;;;;;;;;;16.50;99.70;;;;;;5013688;28;19917;-74
2023/04/09 14:10:12;;;;;;;;;;;16.30;99.80;;;;;;5030775;28;19945;-77
2023/04/09 14:12:37;;;;;;;;;;;16.10;99.90;;;;;;4997360;28;19922;-75
2023/04/09 14:15:03;;;;;;;;;;;15.90;99.90;;;;;;4996058;28;19952;-75
2023/04/09 14:17:29;;;;;;;;;;;16.10;99.90;;;;;;5014669;28;19922;-76
2023/04/09 14:19:56;;;;;;;;;;;16.20;99.90;;;;;;4997283;28;19975;-74
2023/04/09 14:22:22;;;;;;;;;;;16.20;99.90;;;;;;5013810;28;19921;-75
2023/04/09 14:24:47;;;;;;;;;;;16.20;99.90;;;;;;5006387;28;19917;-75